Terminal Aerodrome Forecast
Issued by NWS

Home | Current Version | Previous Version | Text Only | Print | Product List | Glossary On
Versions: 1 2 3 4 5 6 7 8 9 10 11 12 13
292
FTUS46 KSTO 220520
TAFSCK
TAF
KSCK 220520Z 2206/2306 22004KT P6SM SKC
     FM222000 28010KT P6SM BKN100
      TEMPO 2221/2301 P6SM -SHRA BKN050
     FM230300 26011KT P6SM SCT250=

USA.gov is the U.S. government's official web portal to all federal, state and local government web resources and services.